sensor_id;sensor_type;location;lat;lon;timestamp;pressure;altitude;pressure_sealevel;temperature;humidity
47726;BME280;33483;48.294;16.388;2024-03-25T00:01:43;98545.94;;;5.95;100.00
47726;BME280;33483;48.294;16.388;2024-03-25T00:04:09;98547.75;;;5.92;100.00
47726;BME280;33483;48.294;16.388;2024-03-25T00:06:35;98549.28;;;5.88;100.00
47726;BME280;33483;48.294;16.388;2024-03-25T00:09:01;98548.56;;;5.87;100.00
47726;BME280;33483;48.294;16.388;2024-03-25T00:11:30;98550.84;;;5.83;100.00
47726;BME280;33483;48.294;16.388;2024-03-25T00:13:56;98556.56;;;5.85;100.00
47726;BME280;33483;48.294;16.388;2024-03-25T00:16:22;98552.09;;;5.82;100.00
47726;BME280;33483;48.294;16.388;2024-03-25T00:18:48;98546.81;;;5.84;100.00
47726;BME280;33483;48.294;16.388;2024-03-25T00:21:17;98556.09;;;5.81;100.00
47726;BME280;33483;48.294;16.388;2024-03-25T00:23:46;98554.69;;;5.74;100.00
47726;BME280;33483;48.294;16.388;2024-03-25T00:26:12;98559.72;;;5.70;100.00
47726;BME280;33483;48.294;16.388;2024-03-25T00:28:38;98552.75;;;5.69;100.00
47726;BME280;33483;48.294;16.388;2024-03-25T00:31:04;98542.94;;;5.74;100.00
47726;BME280;33483;48.294;16.388;2024-03-25T00:33:30;98543.97;;;5.71;100.00
47726;BME280;33483;48.294;16.388;2024-03-25T00:35:56;98540.72;;;5.72;100.00
47726;BME280;33483;48.294;16.388;2024-03-25T00:38:22;98544.72;;;5.71;100.00
47726;BME280;33483;48.294;16.388;2024-03-25T00:40:49;98548.00;;;5.70;100.00
47726;BME280;33483;48.294;16.388;2024-03-25T00:43:16;98545.97;;;5.70;100.00
47726;BME280;33483;48.294;16.388;2024-03-25T00:45:42;98547.03;;;5.67;100.00
47726;BME280;33483;48.294;16.388;2024-03-25T00:48:08;98535.50;;;5.69;100.00
47726;BME280;33483;48.294;16.388;2024-03-25T00:50:36;98538.19;;;5.74;100.00
47726;BME280;33483;48.294;16.388;2024-03-25T00:53:02;98525.19;;;5.75;100.00
47726;BME280;33483;48.294;16.388;2024-03-25T00:55:29;98530.41;;;5.79;100.00
47726;BME280;33483;48.294;16.388;2024-03-25T00:57:55;98524.38;;;5.80;100.00
47726;BME280;33483;48.294;16.388;2024-03-25T01:00:21;98531.09;;;5.85;100.00
47726;BME280;33483;48.294;16.388;2024-03-25T01:02:47;98525.06;;;5.86;100.00
47726;BME280;33483;48.294;16.388;2024-03-25T01:05:13;98527.81;;;5.86;100.00
47726;BME280;33483;48.294;16.388;2024-03-25T01:07:39;98527.81;;;5.86;100.00
47726;BME280;33483;48.294;16.388;2024-03-25T01:10:06;98527.09;;;5.86;100.00
47726;BME280;33483;48.294;16.388;2024-03-25T01:12:34;98531.59;;;5.83;100.00
47726;BME280;33483;48.294;16.388;2024-03-25T01:15:00;98521.59;;;5.86;100.00
47726;BME280;33483;48.294;16.388;2024-03-25T01:17:28;98529.84;;;5.86;100.00
47726;BME280;33483;48.294;16.388;2024-03-25T01:19:55;98530.78;;;5.88;100.00
47726;BME280;33483;48.294;16.388;2024-03-25T01:22:20;98519.56;;;5.86;100.00
47726;BME280;33483;48.294;16.388;2024-03-25T01:24:47;98520.84;;;5.85;100.00
47726;BME280;33483;48.294;16.388;2024-03-25T01:27:13;98520.00;;;5.90;100.00
47726;BME280;33483;48.294;16.388;2024-03-25T01:29:39;98521.28;;;5.89;100.00
47726;BME280;33483;48.294;16.388;2024-03-25T01:32:05;98517.03;;;5.88;100.00
47726;BME280;33483;48.294;16.388;2024-03-25T01:34:31;98524.09;;;5.84;100.00
47726;BME280;33483;48.294;16.388;2024-03-25T01:36:57;98521.34;;;5.84;100.00
47726;BME280;33483;48.294;16.388;2024-03-25T01:39:26;98520.34;;;5.81;100.00
47726;BME280;33483;48.294;16.388;2024-03-25T01:41:52;98521.34;;;5.84;100.00
47726;BME280;33483;48.294;16.388;2024-03-25T01:44:23;98520.13;;;5.79;100.00
47726;BME280;33483;48.294;16.388;2024-03-25T01:46:50;98524.59;;;5.82;100.00
47726;BME280;33483;48.294;16.388;2024-03-25T01:49:18;98516.84;;;5.81;100.00
47726;BME280;33483;48.294;16.388;2024-03-25T01:51:44;98524.38;;;5.80;100.00
47726;BME280;33483;48.294;16.388;2024-03-25T01:54:11;98513.59;;;5.82;100.00
47726;BME280;33483;48.294;16.388;2024-03-25T01:56:40;98513.91;;;5.79;100.00
47726;BME280;33483;48.294;16.388;2024-03-25T01:59:08;98515.66;;;5.76;100.00
47726;BME280;33483;48.294;16.388;2024-03-25T02:01:33;98506.38;;;5.79;100.00
47726;BME280;33483;48.294;16.388;2024-03-25T02:04:00;98514.41;;;5.77;100.00
47726;BME280;33483;48.294;16.388;2024-03-25T02:06:26;98515.22;;;5.72;100.00
47726;BME280;33483;48.294;16.388;2024-03-25T02:08:54;98515.31;;;5.66;100.00
47726;BME280;33483;48.294;16.388;2024-03-25T02:11:20;98517.06;;;5.64;100.00
47726;BME280;33483;48.294;16.388;2024-03-25T02:13:46;98509.19;;;5.55;100.00
47726;BME280;33483;48.294;16.388;2024-03-25T02:16:12;98510.53;;;5.48;100.00
47726;BME280;33483;48.294;16.388;2024-03-25T02:18:39;98506.06;;;5.45;100.00
47726;BME280;33483;48.294;16.388;2024-03-25T02:21:05;98507.84;;;5.43;100.00
47726;BME280;33483;48.294;16.388;2024-03-25T02:23:31;98507.16;;;5.37;100.00
47726;BME280;33483;48.294;16.388;2024-03-25T02:25:59;98502.91;;;5.36;100.00
47726;BME280;33483;48.294;16.388;2024-03-25T02:28:26;98500.94;;;5.36;100.00
47726;BME280;33483;48.294;16.388;2024-03-25T02:30:52;98497.47;;;5.30;100.00
47726;BME280;33483;48.294;16.388;2024-03-25T02:33:18;98505.28;;;5.26;100.00
47726;BME280;33483;48.294;16.388;2024-03-25T02:35:44;98501.84;;;5.20;100.00
47726;BME280;33483;48.294;16.388;2024-03-25T02:38:10;98498.88;;;5.18;100.00
47726;BME280;33483;48.294;16.388;2024-03-25T02:40:37;98507.84;;;5.19;100.00
47726;BME280;33483;48.294;16.388;2024-03-25T02:43:03;98502.09;;;5.22;100.00
47726;BME280;33483;48.294;16.388;2024-03-25T02:45:29;98509.06;;;5.23;100.00
47726;BME280;33483;48.294;16.388;2024-03-25T02:47:58;98505.78;;;5.25;100.00
47726;BME280;33483;48.294;16.388;2024-03-25T02:50:24;98517.81;;;5.22;100.00
47726;BME280;33483;48.294;16.388;2024-03-25T02:52:50;98510.84;;;5.21;100.00
47726;BME280;33483;48.294;16.388;2024-03-25T02:55:16;98499.38;;;5.17;100.00
47726;BME280;33483;48.294;16.388;2024-03-25T02:57:42;98506.44;;;5.12;100.00
47726;BME280;33483;48.294;16.388;2024-03-25T03:00:08;98493.94;;;5.11;100.00
47726;BME280;33483;48.294;16.388;2024-03-25T03:02:35;98508.50;;;5.06;100.00
47726;BME280;33483;48.294;16.388;2024-03-25T03:05:01;98515.78;;;5.04;100.00
47726;BME280;33483;48.294;16.388;2024-03-25T03:07:29;98507.91;;;5.13;100.00
47726;BME280;33483;48.294;16.388;2024-03-25T03:09:55;98512.56;;;5.24;100.00
47726;BME280;33483;48.294;16.388;2024-03-25T03:12:21;98513.97;;;5.30;100.00
47726;BME280;33483;48.294;16.388;2024-03-25T03:14:47;98509.16;;;5.36;100.00
47726;BME280;33483;48.294;16.388;2024-03-25T03:17:13;98509.69;;;5.35;100.00
47726;BME280;33483;48.294;16.388;2024-03-25T03:19:41;98517.94;;;5.35;100.00
47726;BME280;33483;48.294;16.388;2024-03-25T03:22:07;98512.44;;;5.35;100.00
47726;BME280;33483;48.294;16.388;2024-03-25T03:24:33;98521.91;;;5.34;100.00
47726;BME280;33483;48.294;16.388;2024-03-25T03:26:59;98531.44;;;5.33;100.00
47726;BME280;33483;48.294;16.388;2024-03-25T03:29:27;98527.41;;;5.34;100.00
47726;BME280;33483;48.294;16.388;2024-03-25T03:31:54;98527.41;;;5.34;100.00
47726;BME280;33483;48.294;16.388;2024-03-25T03:34:19;98530.91;;;5.34;100.00
47726;BME280;33483;48.294;16.388;2024-03-25T03:36:46;98526.59;;;5.39;100.00
47726;BME280;33483;48.294;16.388;2024-03-25T03:39:12;98533.09;;;5.41;100.00
47726;BME280;33483;48.294;16.388;2024-03-25T03:41:39;98527.06;;;5.43;100.00
47726;BME280;33483;48.294;16.388;2024-03-25T03:44:05;98539.75;;;5.46;100.00
47726;BME280;33483;48.294;16.388;2024-03-25T03:46:32;98537.78;;;5.46;100.00
47726;BME280;33483;48.294;16.388;2024-03-25T03:48:57;98533.25;;;5.49;100.00
47726;BME280;33483;48.294;16.388;2024-03-25T03:51:24;98537.47;;;5.50;100.00
47726;BME280;33483;48.294;16.388;2024-03-25T03:53:49;98538.16;;;5.56;100.00
47726;BME280;33483;48.294;16.388;2024-03-25T03:56:16;98530.94;;;5.53;100.00
47726;BME280;33483;48.294;16.388;2024-03-25T03:58:42;98534.97;;;5.52;100.00
47726;BME280;33483;48.294;16.388;2024-03-25T04:01:15;98536.97;;;5.51;100.00
47726;BME280;33483;48.294;16.388;2024-03-25T04:03:41;98532.44;;;5.54;100.00
47726;BME280;33483;48.294;16.388;2024-03-25T04:06:11;98534.91;;;5.57;100.00
47726;BME280;33483;48.294;16.388;2024-03-25T04:08:37;98539.88;;;5.59;100.00
47726;BME280;33483;48.294;16.388;2024-03-25T04:11:04;98543.50;;;5.67;100.00
47726;BME280;33483;48.294;16.388;2024-03-25T04:13:32;98541.00;;;5.69;100.00
47726;BME280;33483;48.294;16.388;2024-03-25T04:16:02;98541.22;;;5.71;100.00
47726;BME280;33483;48.294;16.388;2024-03-25T04:18:30;98541.88;;;5.77;100.00
47726;BME280;33483;48.294;16.388;2024-03-25T04:20:56;98548.66;;;5.76;100.00
47726;BME280;33483;48.294;16.388;2024-03-25T04:23:22;98547.72;;;5.73;100.00
47726;BME280;33483;48.294;16.388;2024-03-25T04:25:49;98541.47;;;5.73;100.00
47726;BME280;33483;48.294;16.388;2024-03-25T04:28:15;98541.22;;;5.71;100.00
47726;BME280;33483;48.294;16.388;2024-03-25T04:30:41;98549.25;;;5.69;100.00
47726;BME280;33483;48.294;16.388;2024-03-25T04:33:07;98545.31;;;5.64;100.00
47726;BME280;33483;48.294;16.388;2024-03-25T04:35:34;98544.50;;;5.69;100.00
47726;BME280;33483;48.294;16.388;2024-03-25T04:38:02;98540.53;;;5.65;100.00
47726;BME280;33483;48.294;16.388;2024-03-25T04:40:29;98545.38;;;5.59;100.00
47726;BME280;33483;48.294;16.388;2024-03-25T04:42:54;98535.13;;;5.59;100.00
47726;BME280;33483;48.294;16.388;2024-03-25T04:45:21;98535.78;;;5.65;100.00
47726;BME280;33483;48.294;16.388;2024-03-25T04:47:47;98532.38;;;5.59;100.00
47726;BME280;33483;48.294;16.388;2024-03-25T04:50:13;98533.09;;;5.60;100.00
47726;BME280;33483;48.294;16.388;2024-03-25T04:52:39;98530.81;;;5.64;100.00
47726;BME280;33483;48.294;16.388;2024-03-25T04:55:05;98535.03;;;5.65;100.00
47726;BME280;33483;48.294;16.388;2024-03-25T04:57:31;98541.22;;;5.71;100.00
47726;BME280;33483;48.294;16.388;2024-03-25T04:59:57;98541.88;;;5.77;100.00
47726;BME280;33483;48.294;16.388;2024-03-25T05:02:23;98544.59;;;5.83;100.00
47726;BME280;33483;48.294;16.388;2024-03-25T05:04:50;98567.81;;;5.87;100.00
47726;BME280;33483;48.294;16.388;2024-03-25T05:07:18;98563.94;;;5.96;100.00
47726;BME280;33483;48.294;16.388;2024-03-25T05:09:44;98574.66;;;5.99;100.00
47726;BME280;33483;48.294;16.388;2024-03-25T05:12:10;98571.16;;;5.99;100.00
47726;BME280;33483;48.294;16.388;2024-03-25T05:14:36;98580.16;;;5.99;100.00
47726;BME280;33483;48.294;16.388;2024-03-25T05:17:02;98575.91;;;5.98;100.00
47726;BME280;33483;48.294;16.388;2024-03-25T05:19:30;98576.66;;;5.99;100.00
47726;BME280;33483;48.294;16.388;2024-03-25T05:21:57;98580.09;;;6.05;100.00
47726;BME280;33483;48.294;16.388;2024-03-25T05:24:23;98582.53;;;6.08;100.00
47726;BME280;33483;48.294;16.388;2024-03-25T05:26:49;98580.97;;;6.13;100.00
47726;BME280;33483;48.294;16.388;2024-03-25T05:29:15;98581.13;;;6.20;100.00
47726;BME280;33483;48.294;16.388;2024-03-25T05:31:55;98590.03;;;6.26;100.00
47726;BME280;33483;48.294;16.388;2024-03-25T05:34:21;98584.00;;;6.28;100.00
47726;BME280;33483;48.294;16.388;2024-03-25T05:36:47;98594.28;;;6.27;100.00
47726;BME280;33483;48.294;16.388;2024-03-25T05:39:16;98594.72;;;6.31;100.00
47726;BME280;33483;48.294;16.388;2024-03-25T05:41:42;98591.88;;;6.37;100.00
47726;BME280;33483;48.294;16.388;2024-03-25T05:44:08;98587.78;;;6.43;100.00
47726;BME280;33483;48.294;16.388;2024-03-25T05:46:34;98591.44;;;6.51;100.00
47726;BME280;33483;48.294;16.388;2024-03-25T05:49:01;98593.38;;;6.56;100.00
47726;BME280;33483;48.294;16.388;2024-03-25T05:51:27;98587.03;;;6.61;100.00
47726;BME280;33483;48.294;16.388;2024-03-25T05:53:54;98588.41;;;6.68;100.00
47726;BME280;33483;48.294;16.388;2024-03-25T05:56:22;98589.81;;;7.06;100.00
47726;BME280;33483;48.294;16.388;2024-03-25T05:58:48;98592.56;;;7.06;100.00
47726;BME280;33483;48.294;16.388;2024-03-25T06:01:14;98588.63;;;7.02;100.00
47726;BME280;33483;48.294;16.388;2024-03-25T06:03:40;98598.59;;;7.05;100.00
47726;BME280;33483;48.294;16.388;2024-03-25T06:06:06;98601.13;;;7.03;100.00
47726;BME280;33483;48.294;16.388;2024-03-25T06:08:33;98600.94;;;7.01;100.00
47726;BME280;33483;48.294;16.388;2024-03-25T06:11:02;98605.59;;;7.06;100.00
47726;BME280;33483;48.294;16.388;2024-03-25T06:13:28;98611.13;;;7.06;100.00
47726;BME280;33483;48.294;16.388;2024-03-25T06:15:57;98626.16;;;7.05;100.00
47726;BME280;33483;48.294;16.388;2024-03-25T06:18:23;98627.03;;;7.13;100.00
47726;BME280;33483;48.294;16.388;2024-03-25T06:20:49;98634.47;;;7.18;100.00
47726;BME280;33483;48.294;16.388;2024-03-25T06:23:21;98622.38;;;7.21;100.00
47726;BME280;33483;48.294;16.388;2024-03-25T06:25:47;98632.34;;;7.24;100.00
47726;BME280;33483;48.294;16.388;2024-03-25T06:28:14;98638.28;;;7.28;100.00
47726;BME280;33483;48.294;16.388;2024-03-25T06:30:39;98641.50;;;7.32;100.00
47726;BME280;33483;48.294;16.388;2024-03-25T06:33:25;98630.16;;;7.35;100.00
47726;BME280;33483;48.294;16.388;2024-03-25T06:36:10;98640.88;;;7.39;100.00
47726;BME280;33483;48.294;16.388;2024-03-25T06:38:36;98640.03;;;7.44;100.00
47726;BME280;33483;48.294;16.388;2024-03-25T06:41:02;98632.50;;;7.44;100.00
47726;BME280;33483;48.294;16.388;2024-03-25T06:43:28;98635.16;;;7.50;100.00
47726;BME280;33483;48.294;16.388;2024-03-25T06:45:54;98644.06;;;7.56;100.00
47726;BME280;33483;48.294;16.388;2024-03-25T06:48:20;98650.25;;;8.14;100.00
47726;BME280;33483;48.294;16.388;2024-03-25T06:50:55;98656.13;;;9.53;84.26
47726;BME280;33483;48.294;16.388;2024-03-25T06:53:22;98659.03;;;9.47;79.72
47726;BME280;33483;48.294;16.388;2024-03-25T06:55:54;98672.13;;;9.05;83.87
47726;BME280;33483;48.294;16.388;2024-03-25T06:58:22;98662.31;;;8.50;92.28
47726;BME280;33483;48.294;16.388;2024-03-25T07:00:48;98656.69;;;8.56;95.22
47726;BME280;33483;48.294;16.388;2024-03-25T07:03:15;98666.13;;;8.47;92.13
47726;BME280;33483;48.294;16.388;2024-03-25T07:05:41;98673.38;;;8.37;94.96
47726;BME280;33483;48.294;16.388;2024-03-25T07:08:07;98666.38;;;8.36;95.86
47726;BME280;33483;48.294;16.388;2024-03-25T07:10:36;98664.97;;;8.43;93.28
47726;BME280;33483;48.294;16.388;2024-03-25T07:13:04;98661.38;;;8.35;93.81
47726;BME280;33483;48.294;16.388;2024-03-25T07:15:31;98661.50;;;8.29;96.99
47726;BME280;33483;48.294;16.388;2024-03-25T07:17:57;98663.59;;;8.23;96.13
47726;BME280;33483;48.294;16.388;2024-03-25T07:20:23;98664.47;;;8.31;96.23
47726;BME280;33483;48.294;16.388;2024-03-25T07:22:50;98660.59;;;8.47;92.20
47726;BME280;33483;48.294;16.388;2024-03-25T07:25:16;98658.91;;;8.44;93.84
47726;BME280;33483;48.294;16.388;2024-03-25T07:27:44;98676.19;;;9.25;81.72
47726;BME280;33483;48.294;16.388;2024-03-25T07:30:10;98671.72;;;9.43;75.48
47726;BME280;33483;48.294;16.388;2024-03-25T07:32:36;98682.28;;;9.10;77.62
47726;BME280;33483;48.294;16.388;2024-03-25T07:35:03;98674.16;;;9.46;77.32
47726;BME280;33483;48.294;16.388;2024-03-25T07:37:30;98679.56;;;10.08;69.52
47726;BME280;33483;48.294;16.388;2024-03-25T07:39:56;98689.06;;;11.21;61.61
47726;BME280;33483;48.294;16.388;2024-03-25T07:42:23;98693.16;;;11.43;61.97
47726;BME280;33483;48.294;16.388;2024-03-25T07:44:49;98679.78;;;10.96;61.76
47726;BME280;33483;48.294;16.388;2024-03-25T07:47:15;98698.00;;;12.97;56.47
47726;BME280;33483;48.294;16.388;2024-03-25T07:49:41;98709.59;;;14.85;49.61
47726;BME280;33483;48.294;16.388;2024-03-25T07:52:10;98716.31;;;16.08;47.26
47726;BME280;33483;48.294;16.388;2024-03-25T07:54:36;98723.47;;;15.82;44.68
47726;BME280;33483;48.294;16.388;2024-03-25T07:57:05;98713.38;;;16.06;43.42
47726;BME280;33483;48.294;16.388;2024-03-25T07:59:31;98725.84;;;14.79;45.77
47726;BME280;33483;48.294;16.388;2024-03-25T08:01:57;98724.06;;;14.57;46.15
47726;BME280;33483;48.294;16.388;2024-03-25T08:04:23;98714.19;;;15.79;44.20
47726;BME280;33483;48.294;16.388;2024-03-25T08:06:49;98722.28;;;14.10;47.31
47726;BME280;33483;48.294;16.388;2024-03-25T08:09:15;98720.56;;;13.48;48.65
47726;BME280;33483;48.294;16.388;2024-03-25T08:11:43;98732.91;;;14.29;47.91
47726;BME280;33483;48.294;16.388;2024-03-25T08:14:12;98723.09;;;13.29;50.46
47726;BME280;33483;48.294;16.388;2024-03-25T08:16:38;98724.31;;;12.64;51.39
47726;BME280;33483;48.294;16.388;2024-03-25T08:19:04;98743.50;;;14.23;48.47
47726;BME280;33483;48.294;16.388;2024-03-25T08:21:30;98736.91;;;15.13;45.32
47726;BME280;33483;48.294;16.388;2024-03-25T08:23:59;98749.94;;;15.81;43.71
47726;BME280;33483;48.294;16.388;2024-03-25T08:26:25;98746.53;;;16.19;42.72
47726;BME280;33483;48.294;16.388;2024-03-25T08:28:51;98742.38;;;16.20;42.55
47726;BME280;33483;48.294;16.388;2024-03-25T08:31:17;98742.22;;;16.08;42.27
47726;BME280;33483;48.294;16.388;2024-03-25T08:33:43;98733.19;;;16.65;41.33
47726;BME280;33483;48.294;16.388;2024-03-25T08:36:09;98743.38;;;15.59;42.73
47726;BME280;33483;48.294;16.388;2024-03-25T08:38:37;98760.97;;;14.65;44.30
47726;BME280;33483;48.294;16.388;2024-03-25T08:41:04;98767.63;;;15.57;42.83
47726;BME280;33483;48.294;16.388;2024-03-25T08:43:30;98751.56;;;15.84;43.22
47726;BME280;33483;48.294;16.388;2024-03-25T08:45:56;98756.31;;;15.91;42.90
47726;BME280;33483;48.294;16.388;2024-03-25T08:48:25;98761.06;;;15.71;42.63
47726;BME280;33483;48.294;16.388;2024-03-25T08:50:51;98769.53;;;15.54;42.00
47726;BME280;33483;48.294;16.388;2024-03-25T08:53:19;98766.91;;;15.56;42.38
47726;BME280;33483;48.294;16.388;2024-03-25T08:55:46;98770.22;;;15.45;42.57
47726;BME280;33483;48.294;16.388;2024-03-25T08:58:12;98777.81;;;15.98;42.40
47726;BME280;33483;48.294;16.388;2024-03-25T09:00:39;98774.94;;;15.09;44.39
47726;BME280;33483;48.294;16.388;2024-03-25T09:03:05;98774.31;;;14.66;45.51
47726;BME280;33483;48.294;16.388;2024-03-25T09:05:34;98779.53;;;13.54;45.51
47726;BME280;33483;48.294;16.388;2024-03-25T09:08:00;98776.66;;;12.98;47.72
47726;BME280;33483;48.294;16.388;2024-03-25T09:10:27;98780.19;;;11.98;50.27
47726;BME280;33483;48.294;16.388;2024-03-25T09:13:13;98771.47;;;11.79;50.95
47726;BME280;33483;48.294;16.388;2024-03-25T09:15:39;98778.00;;;11.23;52.56
47726;BME280;33483;48.294;16.388;2024-03-25T09:18:05;98775.56;;;11.12;53.36
47726;BME280;33483;48.294;16.388;2024-03-25T09:20:31;98777.69;;;10.91;54.58
47726;BME280;33483;48.294;16.388;2024-03-25T09:22:57;98771.13;;;10.66;55.70
47726;BME280;33483;48.294;16.388;2024-03-25T09:25:26;98771.75;;;10.44;57.70
47726;BME280;33483;48.294;16.388;2024-03-25T09:27:52;98767.31;;;11.35;57.69
47726;BME280;33483;48.294;16.388;2024-03-25T09:30:18;98769.06;;;11.68;54.65
47726;BME280;33483;48.294;16.388;2024-03-25T09:32:45;98770.91;;;12.26;52.68
47726;BME280;33483;48.294;16.388;2024-03-25T09:35:11;98764.22;;;12.44;50.51
47726;BME280;33483;48.294;16.388;2024-03-25T09:37:37;98765.38;;;12.11;50.38
47726;BME280;33483;48.294;16.388;2024-03-25T09:40:04;98773.09;;;12.42;51.29
47726;BME280;33483;48.294;16.388;2024-03-25T09:42:34;98759.91;;;12.58;50.51
47726;BME280;33483;48.294;16.388;2024-03-25T09:45:02;98770.34;;;12.97;49.67
47726;BME280;33483;48.294;16.388;2024-03-25T09:47:33;98773.31;;;13.39;48.37
47726;BME280;33483;48.294;16.388;2024-03-25T09:50:00;98770.97;;;13.85;48.17
47726;BME280;33483;48.294;16.388;2024-03-25T09:52:28;98771.13;;;14.11;46.71
47726;BME280;33483;48.294;16.388;2024-03-25T09:54:54;98775.88;;;14.26;46.29
47726;BME280;33483;48.294;16.388;2024-03-25T09:57:21;98773.47;;;13.98;45.33
47726;BME280;33483;48.294;16.388;2024-03-25T09:59:47;98763.56;;;14.29;45.96
47726;BME280;33483;48.294;16.388;2024-03-25T10:02:14;98762.34;;;13.73;45.92
47726;BME280;33483;48.294;16.388;2024-03-25T10:04:46;98764.56;;;13.42;46.83
47726;BME280;33483;48.294;16.388;2024-03-25T10:07:22;98757.25;;;12.75;46.43
47726;BME280;33483;48.294;16.388;2024-03-25T10:09:51;98765.97;;;12.79;46.31
47726;BME280;33483;48.294;16.388;2024-03-25T10:12:17;98766.03;;;12.49;47.43
47726;BME280;33483;48.294;16.388;2024-03-25T10:14:44;98763.72;;;12.08;47.73
47726;BME280;33483;48.294;16.388;2024-03-25T10:17:10;98770.72;;;11.79;46.17
47726;BME280;33483;48.294;16.388;2024-03-25T10:19:36;98763.91;;;12.10;47.33
47726;BME280;33483;48.294;16.388;2024-03-25T10:22:06;98762.41;;;11.94;46.74
47726;BME280;33483;48.294;16.388;2024-03-25T10:24:51;98772.91;;;12.48;47.10
47726;BME280;33483;48.294;16.388;2024-03-25T10:27:17;98778.09;;;13.14;45.09
47726;BME280;33483;48.294;16.388;2024-03-25T10:29:46;98775.88;;;13.12;44.71
47726;BME280;33483;48.294;16.388;2024-03-25T10:32:12;98767.44;;;12.80;44.88
47726;BME280;33483;48.294;16.388;2024-03-25T10:34:39;98777.16;;;12.41;46.94
47726;BME280;33483;48.294;16.388;2024-03-25T10:37:05;98774.44;;;12.04;47.54
47726;BME280;33483;48.294;16.388;2024-03-25T10:39:35;98774.63;;;11.91;48.62
47726;BME280;33483;48.294;16.388;2024-03-25T10:42:07;98774.00;;;12.45;47.91
47726;BME280;33483;48.294;16.388;2024-03-25T10:44:35;98759.09;;;12.80;47.77
47726;BME280;33483;48.294;16.388;2024-03-25T10:47:03;98759.38;;;13.14;46.40
47726;BME280;33483;48.294;16.388;2024-03-25T10:52:03;98764.91;;;12.52;46.20
47726;BME280;33483;48.294;16.388;2024-03-25T10:54:31;98760.72;;;12.36;46.75
47726;BME280;33483;48.294;16.388;2024-03-25T10:56:58;98756.69;;;12.77;46.05
47726;BME280;33483;48.294;16.388;2024-03-25T10:59:25;98751.22;;;13.01;46.33
47726;BME280;33483;48.294;16.388;2024-03-25T11:01:52;98751.31;;;13.26;45.66
47726;BME280;33483;48.294;16.388;2024-03-25T11:04:19;98741.38;;;13.47;46.64
47726;BME280;33483;48.294;16.388;2024-03-25T11:06:45;98743.91;;;13.28;44.68
47726;BME280;33483;48.294;16.388;2024-03-25T11:09:21;98749.09;;;13.24;44.99
47726;BME280;33483;48.294;16.388;2024-03-25T11:11:52;98743.63;;;13.41;45.09
47726;BME280;33483;48.294;16.388;2024-03-25T11:14:18;98741.63;;;13.34;43.41
47726;BME280;33483;48.294;16.388;2024-03-25T11:16:54;98737.53;;;13.85;43.71
47726;BME280;33483;48.294;16.388;2024-03-25T11:19:24;98736.75;;;13.67;42.57
47726;BME280;33483;48.294;16.388;2024-03-25T11:21:51;98733.28;;;13.84;42.81
47726;BME280;33483;48.294;16.388;2024-03-25T11:24:27;98726.91;;;13.91;41.94
47726;BME280;33483;48.294;16.388;2024-03-25T11:26:53;98730.09;;;13.38;42.85
47726;BME280;33483;48.294;16.388;2024-03-25T11:29:19;98720.50;;;12.92;44.46
47726;BME280;33483;48.294;16.388;2024-03-25T11:31:45;98725.09;;;13.04;44.11
47726;BME280;33483;48.294;16.388;2024-03-25T11:34:11;98737.19;;;12.92;43.26
47726;BME280;33483;48.294;16.388;2024-03-25T11:36:37;98740.34;;;12.88;43.38
47726;BME280;33483;48.294;16.388;2024-03-25T11:39:04;98726.50;;;12.73;45.92
47726;BME280;33483;48.294;16.388;2024-03-25T11:41:33;98733.03;;;13.08;45.89
47726;BME280;33483;48.294;16.388;2024-03-25T11:44:01;98737.03;;;13.22;43.60
47726;BME280;33483;48.294;16.388;2024-03-25T11:46:27;98731.88;;;13.50;42.80
47726;BME280;33483;48.294;16.388;2024-03-25T11:48:54;98725.38;;;13.73;42.45
47726;BME280;33483;48.294;16.388;2024-03-25T11:51:19;98717.16;;;13.82;42.27
47726;BME280;33483;48.294;16.388;2024-03-25T11:53:46;98723.75;;;13.70;40.77
47726;BME280;33483;48.294;16.388;2024-03-25T11:56:12;98723.22;;;13.88;41.34
47726;BME280;33483;48.294;16.388;2024-03-25T11:58:39;98726.69;;;13.72;40.70
47726;BME280;33483;48.294;16.388;2024-03-25T12:01:05;98734.31;;;13.46;40.35
47726;BME280;33483;48.294;16.388;2024-03-25T12:03:33;98727.53;;;13.32;41.28
47726;BME280;33483;48.294;16.388;2024-03-25T12:06:00;98739.00;;;13.36;40.25
47726;BME280;33483;48.294;16.388;2024-03-25T12:08:27;98727.94;;;13.53;40.96
47726;BME280;33483;48.294;16.388;2024-03-25T12:10:55;98727.72;;;13.59;40.27
47726;BME280;33483;48.294;16.388;2024-03-25T12:13:40;98719.47;;;13.69;39.99
47726;BME280;33483;48.294;16.388;2024-03-25T12:16:07;98722.28;;;13.44;40.27
47726;BME280;33483;48.294;16.388;2024-03-25T12:18:36;98723.84;;;13.30;41.99
47726;BME280;33483;48.294;16.388;2024-03-25T12:21:04;98720.53;;;13.24;43.80
47726;BME280;33483;48.294;16.388;2024-03-25T12:23:32;98721.88;;;13.47;43.82
47726;BME280;33483;48.294;16.388;2024-03-25T12:26:01;98721.41;;;12.94;43.25
47726;BME280;33483;48.294;16.388;2024-03-25T12:28:30;98724.00;;;12.45;44.80
47726;BME280;33483;48.294;16.388;2024-03-25T12:30:56;98726.31;;;11.86;45.27
47726;BME280;33483;48.294;16.388;2024-03-25T12:33:23;98722.97;;;11.95;45.94
47726;BME280;33483;48.294;16.388;2024-03-25T12:35:52;98713.50;;;12.28;45.72
47726;BME280;33483;48.294;16.388;2024-03-25T12:38:28;98708.16;;;12.70;46.72
47726;BME280;33483;48.294;16.388;2024-03-25T12:41:13;98715.06;;;12.54;44.05
47726;BME280;33483;48.294;16.388;2024-03-25T12:43:43;98710.72;;;12.28;44.03
47726;BME280;33483;48.294;16.388;2024-03-25T12:46:11;98702.91;;;12.34;46.03
47726;BME280;33483;48.294;16.388;2024-03-25T12:48:38;98701.56;;;12.51;45.63
47726;BME280;33483;48.294;16.388;2024-03-25T12:51:04;98708.38;;;12.65;45.89
47726;BME280;33483;48.294;16.388;2024-03-25T12:53:31;98716.91;;;12.59;43.80